createdAt,value
2022-10-17T00:00:48.154Z,9.93
2022-10-17T00:03:16.534Z,8.37
2022-10-17T00:05:46.464Z,5.70
2022-10-17T00:08:16.293Z,9.00
2022-10-17T00:10:44.161Z,5.80
2022-10-17T00:13:12.928Z,6.33
2022-10-17T00:15:44.876Z,7.03
2022-10-17T00:18:12.945Z,6.70
2022-10-17T00:20:40.751Z,4.93
2022-10-17T00:23:08.569Z,5.97
2022-10-17T00:25:37.030Z,5.77
2022-10-17T00:28:05.006Z,8.57
2022-10-17T00:30:32.891Z,9.57
2022-10-17T00:33:02.033Z,7.13
2022-10-17T00:35:29.866Z,6.73
2022-10-17T00:37:57.800Z,8.23
2022-10-17T00:40:26.253Z,5.40
2022-10-17T00:42:54.040Z,6.27
2022-10-17T00:45:24.772Z,4.97
2022-10-17T00:47:57.061Z,6.60
2022-10-17T00:50:27.040Z,7.17
2022-10-17T00:52:57.814Z,6.50
2022-10-17T00:55:29.504Z,6.10
2022-10-17T00:57:58.271Z,4.70
2022-10-17T01:00:26.265Z,6.37
2022-10-17T01:02:54.119Z,5.67
2022-10-17T01:05:22.220Z,9.20
2022-10-17T01:07:54.019Z,5.80
2022-10-17T01:13:08.667Z,5.17
2022-10-17T01:15:49.228Z,6.70
2022-10-17T01:18:27.309Z,8.80
2022-10-17T01:21:10.020Z,4.17
2022-10-17T01:24:02.927Z,6.00
2022-10-17T01:26:46.294Z,4.77
2022-10-17T01:29:43.137Z,6.20
2022-10-17T01:32:17.320Z,8.43
2022-10-17T01:34:56.010Z,4.43
2022-10-17T01:37:30.434Z,6.70
2022-10-17T01:40:10.648Z,5.67
2022-10-17T01:42:45.269Z,6.17
2022-10-17T01:45:17.520Z,6.97
2022-10-17T01:47:51.904Z,7.70
2022-10-17T01:50:25.056Z,6.63
2022-10-17T01:52:56.701Z,4.77
2022-10-17T01:55:29.592Z,4.70
2022-10-17T01:58:01.718Z,6.47
2022-10-17T02:00:31.497Z,5.83
2022-10-17T02:03:04.862Z,5.53
2022-10-17T02:05:37.762Z,4.50
2022-10-17T02:08:06.249Z,5.30
2022-10-17T02:10:40.471Z,5.53
2022-10-17T02:13:15.394Z,5.60
2022-10-17T02:16:00.460Z,5.83
2022-10-17T02:18:48.596Z,5.73
2022-10-17T02:21:21.676Z,5.87
2022-10-17T02:23:57.319Z,4.50
2022-10-17T02:26:31.924Z,4.40
2022-10-17T02:29:07.538Z,6.63
2022-10-17T02:31:41.646Z,6.13
2022-10-17T02:34:18.404Z,8.47
2022-10-17T02:36:51.825Z,6.17
2022-10-17T02:39:21.769Z,4.23
2022-10-17T02:41:52.073Z,4.03
2022-10-17T02:44:21.473Z,5.97
2022-10-17T02:46:56.110Z,5.20
2022-10-17T02:49:29.453Z,2.73
2022-10-17T02:52:03.973Z,5.77
2022-10-17T02:54:38.218Z,4.63
2022-10-17T02:57:11.765Z,6.13
2022-10-17T02:59:42.199Z,6.43
2022-10-17T03:02:10.118Z,5.07
2022-10-17T03:04:39.359Z,5.73
2022-10-17T03:07:07.144Z,5.60
2022-10-17T03:09:34.924Z,5.23
2022-10-17T03:12:02.854Z,4.43
2022-10-17T03:14:30.585Z,5.70
2022-10-17T03:16:58.363Z,4.73
2022-10-17T03:19:26.235Z,4.57
2022-10-17T03:21:55.510Z,4.03
2022-10-17T03:24:23.535Z,4.43
2022-10-17T03:26:51.510Z,5.80
2022-10-17T03:29:19.378Z,3.83
2022-10-17T03:31:47.182Z,5.83
2022-10-17T03:34:16.786Z,5.47
2022-10-17T03:36:44.557Z,5.27
2022-10-17T03:39:14.065Z,4.73
2022-10-17T03:41:41.939Z,3.83
2022-10-17T03:44:09.713Z,5.87
2022-10-17T03:46:37.498Z,4.40
2022-10-17T03:49:05.389Z,4.67
2022-10-17T03:51:34.474Z,4.17
2022-10-17T03:54:02.507Z,2.87
2022-10-17T03:56:32.008Z,4.77
2022-10-17T03:58:59.809Z,2.60
2022-10-17T04:01:27.770Z,3.80
2022-10-17T04:03:57.775Z,2.37
2022-10-17T04:06:25.548Z,4.27
2022-10-17T04:08:53.289Z,3.67
2022-10-17T04:11:22.332Z,3.07
2022-10-17T04:13:55.842Z,3.93
2022-10-17T04:16:24.651Z,4.17
2022-10-17T04:18:55.004Z,3.87
2022-10-17T04:21:24.684Z,2.80
2022-10-17T04:23:54.780Z,5.17
2022-10-17T04:26:23.049Z,3.20
2022-10-17T04:28:51.506Z,2.77
2022-10-17T04:31:20.747Z,3.10
2022-10-17T04:33:49.897Z,5.03
2022-10-17T04:36:19.262Z,4.60
2022-10-17T04:38:47.061Z,3.33
2022-10-17T04:41:17.065Z,4.57
2022-10-17T04:43:48.472Z,4.40
2022-10-17T04:46:20.340Z,4.43
2022-10-17T04:48:48.228Z,4.80
2022-10-17T04:51:20.562Z,4.70
2022-10-17T04:53:51.111Z,2.70
2022-10-17T04:56:20.445Z,2.97
2022-10-17T04:58:49.161Z,4.70
2022-10-17T05:01:20.243Z,4.87
2022-10-17T05:03:49.744Z,3.40
2022-10-17T05:06:19.117Z,5.93
2022-10-17T05:08:47.794Z,2.53
2022-10-17T05:11:18.599Z,6.83
2022-10-17T05:13:50.421Z,3.23
2022-10-17T05:16:18.318Z,2.73
2022-10-17T05:18:50.614Z,5.00
2022-10-17T05:21:22.700Z,4.20
2022-10-17T05:23:50.670Z,3.97
2022-10-17T05:26:19.661Z,6.60
2022-10-17T05:28:47.694Z,2.87
2022-10-17T05:31:16.213Z,3.43
2022-10-17T05:33:44.254Z,5.17
2022-10-17T05:36:12.080Z,2.73
2022-10-17T05:38:41.361Z,5.00
2022-10-17T05:41:09.327Z,3.63
2022-10-17T05:43:37.366Z,6.37
2022-10-17T05:46:06.598Z,2.70
2022-10-17T05:48:35.220Z,5.17
2022-10-17T05:51:07.979Z,4.03
2022-10-17T05:53:38.126Z,4.13
2022-10-17T05:56:09.714Z,3.37
2022-10-17T05:58:49.711Z,5.37
2022-10-17T06:01:18.666Z,4.40
2022-10-17T06:03:46.505Z,4.20
2022-10-17T06:06:15.618Z,3.83
2022-10-17T06:08:44.033Z,3.73
2022-10-17T06:11:13.941Z,4.57
2022-10-17T06:13:42.030Z,4.20
2022-10-17T06:16:10.486Z,3.33
2022-10-17T06:18:38.349Z,3.90
2022-10-17T06:21:09.356Z,5.30
2022-10-17T06:23:37.668Z,3.30
2022-10-17T06:26:09.100Z,3.77
2022-10-17T06:28:38.808Z,5.47
2022-10-17T06:31:08.160Z,5.73
2022-10-17T06:33:36.252Z,5.00
2022-10-17T06:36:05.989Z,4.70
2022-10-17T06:38:35.157Z,2.83
2022-10-17T06:41:08.526Z,4.73
2022-10-17T06:43:38.473Z,5.77
2022-10-17T06:46:07.241Z,5.80
2022-10-17T06:48:35.324Z,4.87
2022-10-17T06:51:04.869Z,3.27
2022-10-17T06:53:35.810Z,5.10
2022-10-17T06:56:04.824Z,10.60
2022-10-17T06:58:34.545Z,7.50
2022-10-17T07:01:06.465Z,5.50
2022-10-17T07:03:34.959Z,3.00
2022-10-17T07:06:03.386Z,4.37
2022-10-17T07:08:31.405Z,4.53
2022-10-17T07:11:00.253Z,18.47
2022-10-17T07:13:28.443Z,14.77
2022-10-17T07:16:00.645Z,6.90
2022-10-17T07:18:30.046Z,4.37
2022-10-17T07:20:57.837Z,5.93
2022-10-17T07:23:25.928Z,5.10
2022-10-17T07:25:53.836Z,5.27
2022-10-17T07:28:21.641Z,20.30
2022-10-17T07:30:52.144Z,7.30
2022-10-17T07:33:22.506Z,6.73
2022-10-17T07:35:52.900Z,20.47
2022-10-17T07:38:20.808Z,51.47
2022-10-17T07:40:55.729Z,16.23
2022-10-17T07:43:23.958Z,20.53
2022-10-17T07:45:52.539Z,7.97
2022-10-17T07:48:22.121Z,6.67
2022-10-17T07:50:52.103Z,6.70
2022-10-17T07:53:20.339Z,7.47
2022-10-17T07:55:49.625Z,8.60
2022-10-17T07:58:17.449Z,17.43
2022-10-17T08:00:48.266Z,13.97
2022-10-17T08:03:16.491Z,4.83
2022-10-17T08:05:44.255Z,6.40
2022-10-17T08:08:13.396Z,5.67
2022-10-17T08:10:41.338Z,6.30
2022-10-17T08:13:09.339Z,3.83
2022-10-17T08:15:38.839Z,6.67
2022-10-17T08:18:06.769Z,5.20
2022-10-17T08:20:34.548Z,6.17
2022-10-17T08:23:02.295Z,3.97
2022-10-17T08:25:31.507Z,5.00
2022-10-17T08:27:59.571Z,4.30
2022-10-17T08:30:27.381Z,7.67
2022-10-17T08:32:56.471Z,3.90
2022-10-17T08:35:24.244Z,4.03
2022-10-17T08:37:52.115Z,4.50
2022-10-17T08:40:25.377Z,5.53
2022-10-17T08:43:14.178Z,9.32
2022-10-17T08:45:48.606Z,8.95
2022-10-17T08:48:19.813Z,5.03
2022-10-17T08:50:52.933Z,7.57
2022-10-17T08:53:25.818Z,6.10
2022-10-17T08:55:55.797Z,4.00
2022-10-17T08:58:28.879Z,5.47
2022-10-17T09:01:10.511Z,8.18
2022-10-17T09:03:54.090Z,6.70
2022-10-17T09:06:29.944Z,7.68
2022-10-17T09:09:12.526Z,6.68
2022-10-17T09:12:14.594Z,6.05
2022-10-17T09:14:59.957Z,9.00
2022-10-17T09:17:37.814Z,7.03
2022-10-17T09:20:11.935Z,7.35
2022-10-17T09:22:46.143Z,5.80
2022-10-17T09:25:17.581Z,4.85
2022-10-17T09:27:49.857Z,6.13
2022-10-17T09:30:44.140Z,6.25
2022-10-17T09:33:28.170Z,5.53
2022-10-17T09:36:05.517Z,6.72
2022-10-17T09:38:40.043Z,7.78
2022-10-17T09:41:39.682Z,6.43
2022-10-17T09:44:16.396Z,5.75
2022-10-17T09:46:57.562Z,6.72
2022-10-17T09:49:31.606Z,3.70
2022-10-17T09:51:59.539Z,8.93
2022-10-17T09:54:35.259Z,7.13
2022-10-17T09:57:05.547Z,6.20
2022-10-17T09:59:35.306Z,6.93
2022-10-17T10:02:16.914Z,8.52
2022-10-17T10:05:04.089Z,7.45
2022-10-17T10:07:34.494Z,8.60
2022-10-17T10:10:03.985Z,4.32
2022-10-17T10:12:33.812Z,6.00
2022-10-17T10:15:02.298Z,5.72
2022-10-17T10:17:41.865Z,6.47
2022-10-17T10:20:32.259Z,6.72
2022-10-17T10:23:08.991Z,5.82
2022-10-17T10:25:37.341Z,9.27
2022-10-17T10:28:11.766Z,5.47
2022-10-17T10:30:40.187Z,7.88
2022-10-17T10:33:12.855Z,7.95
2022-10-17T10:35:40.865Z,7.43
2022-10-17T10:38:12.568Z,6.88
2022-10-17T10:40:47.394Z,3.97
2022-10-17T10:43:25.486Z,6.75
2022-10-17T10:45:53.941Z,4.90
2022-10-17T10:48:24.899Z,6.22
2022-10-17T10:50:56.835Z,4.60
2022-10-17T10:53:42.428Z,6.88
2022-10-17T10:56:14.974Z,6.70
2022-10-17T10:58:51.844Z,5.47
2022-10-17T11:01:26.456Z,5.72
2022-10-17T11:04:21.183Z,6.68
2022-10-17T11:06:53.106Z,7.75
2022-10-17T11:09:33.018Z,5.55
2022-10-17T11:12:06.348Z,4.65
2022-10-17T11:14:41.702Z,7.20
2022-10-17T11:17:18.895Z,7.78
2022-10-17T11:19:57.364Z,6.93
2022-10-17T11:22:29.535Z,10.20
2022-10-17T11:25:01.753Z,7.03
2022-10-17T11:27:31.119Z,8.13
2022-10-17T11:29:59.636Z,5.90
2022-10-17T11:32:32.855Z,6.68
2022-10-17T11:35:06.624Z,7.72
2022-10-17T11:37:40.823Z,6.13
2022-10-17T11:40:19.331Z,6.60
2022-10-17T11:42:56.609Z,10.93
2022-10-17T11:45:28.269Z,9.82
2022-10-17T11:48:02.704Z,6.68
2022-10-17T11:53:26.183Z,9.15
2022-10-17T11:55:55.625Z,7.15
2022-10-17T11:58:37.627Z,10.95
2022-10-17T12:01:15.173Z,7.93
2022-10-17T12:03:53.319Z,8.65
2022-10-17T12:06:39.340Z,9.93
2022-10-17T12:09:14.145Z,7.40
2022-10-17T12:11:50.851Z,7.80
2022-10-17T12:14:41.133Z,5.90
2022-10-17T12:17:26.971Z,9.75
2022-10-17T12:19:55.243Z,5.80
2022-10-17T12:22:28.256Z,6.80
2022-10-17T12:24:59.504Z,4.75
2022-10-17T12:27:46.238Z,4.07
2022-10-17T12:30:24.473Z,6.45
2022-10-17T12:33:22.138Z,5.68
2022-10-17T12:35:52.305Z,8.40
2022-10-17T12:38:29.101Z,6.22
2022-10-17T12:41:04.400Z,5.82
2022-10-17T12:43:56.007Z,7.43
2022-10-17T12:46:51.078Z,6.97
2022-10-17T12:49:51.117Z,7.68
2022-10-17T12:52:54.030Z,10.93
2022-10-17T12:55:27.067Z,6.45
2022-10-17T12:58:01.197Z,6.80
2022-10-17T13:00:35.924Z,8.35
2022-10-17T13:03:07.653Z,6.65
2022-10-17T13:05:38.392Z,6.75
2022-10-17T13:08:09.082Z,7.80
2022-10-17T13:10:43.169Z,7.53
2022-10-17T13:13:19.353Z,5.60
2022-10-17T13:15:48.216Z,5.07
2022-10-17T13:18:22.057Z,7.10
2022-10-17T13:20:57.450Z,7.22
2022-10-17T13:23:26.267Z,10.77
2022-10-17T13:26:16.186Z,7.40
2022-10-17T13:28:44.572Z,8.50
2022-10-17T13:31:30.930Z,10.63
2022-10-17T13:34:01.550Z,8.88
2022-10-17T13:36:31.234Z,11.05
2022-10-17T13:39:00.608Z,8.82
2022-10-17T13:41:36.295Z,8.40
2022-10-17T13:44:10.493Z,8.13
2022-10-17T13:46:41.063Z,11.90
2022-10-17T13:49:25.711Z,7.05
2022-10-17T13:51:57.139Z,8.80
2022-10-17T13:54:36.908Z,8.82
2022-10-17T13:57:07.977Z,10.32
2022-10-17T13:59:40.204Z,9.25
2022-10-17T14:02:14.685Z,9.45
2022-10-17T14:05:15.199Z,9.73
2022-10-17T14:08:05.698Z,9.07
2022-10-17T14:10:28.855Z,9.02
2022-10-17T14:12:59.165Z,8.48
2022-10-17T14:15:29.342Z,12.55
2022-10-17T14:17:59.440Z,12.13
2022-10-17T14:23:35.550Z,11.20
2022-10-17T14:26:15.908Z,10.75
2022-10-17T14:28:48.941Z,10.13
2022-10-17T14:31:31.147Z,10.35
2022-10-17T14:33:59.171Z,10.45
2022-10-17T14:36:35.996Z,8.98
2022-10-17T14:39:04.839Z,8.15
2022-10-17T14:41:42.872Z,9.30
2022-10-17T14:44:21.513Z,8.70
2022-10-17T14:46:53.456Z,7.18
2022-10-17T14:49:27.095Z,8.70
2022-10-17T14:52:24.658Z,7.07
2022-10-17T14:54:52.496Z,8.57
2022-10-17T14:57:24.831Z,10.10
2022-10-17T14:59:55.597Z,7.95
2022-10-17T15:02:24.287Z,9.50
2022-10-17T15:04:52.144Z,8.68
2022-10-17T15:07:21.210Z,7.07
2022-10-17T15:09:51.582Z,12.95
2022-10-17T15:12:21.558Z,8.00
2022-10-17T15:14:49.605Z,8.20
2022-10-17T15:17:20.902Z,8.50
2022-10-17T15:19:50.641Z,12.25
2022-10-17T15:22:19.222Z,9.55
2022-10-17T15:24:47.251Z,10.00
2022-10-17T15:27:16.949Z,7.75
2022-10-17T15:29:45.200Z,8.88
2022-10-17T15:32:13.170Z,8.80
2022-10-17T15:34:43.114Z,8.15
2022-10-17T15:37:19.099Z,9.10
2022-10-17T15:39:52.965Z,9.02
2022-10-17T15:42:21.780Z,9.43
2022-10-17T15:44:50.331Z,8.77
2022-10-17T15:47:29.626Z,8.25
2022-10-17T15:49:59.045Z,8.20
2022-10-17T15:52:27.261Z,9.48
2022-10-17T15:54:57.391Z,8.88
2022-10-17T15:57:29.484Z,11.45
2022-10-17T16:00:00.009Z,7.68
2022-10-17T16:02:28.292Z,7.50
2022-10-17T16:04:56.081Z,7.22
2022-10-17T16:07:25.382Z,10.30
2022-10-17T16:09:53.218Z,8.18
2022-10-17T16:12:27.635Z,7.53
2022-10-17T16:14:55.561Z,8.05
2022-10-17T16:17:23.441Z,7.10
2022-10-17T16:19:51.305Z,7.50
2022-10-17T16:22:27.661Z,6.40
2022-10-17T16:24:59.270Z,10.70
2022-10-17T16:27:27.339Z,7.03
2022-10-17T16:29:55.133Z,6.93
2022-10-17T16:32:22.904Z,6.83
2022-10-17T16:34:50.643Z,9.75
2022-10-17T16:37:18.359Z,9.60
2022-10-17T16:39:52.545Z,8.45
2022-10-17T16:42:20.825Z,8.27
2022-10-17T16:44:49.024Z,9.13
2022-10-17T16:47:17.402Z,8.50
2022-10-17T16:49:45.510Z,7.97
2022-10-17T16:52:13.450Z,8.15
2022-10-17T16:54:41.460Z,7.95
2022-10-17T16:57:10.579Z,9.02
2022-10-17T16:59:38.323Z,10.57
2022-10-17T17:02:06.205Z,9.20
2022-10-17T17:04:34.016Z,8.45
2022-10-17T17:07:01.760Z,10.60
2022-10-17T17:09:29.691Z,10.30
2022-10-17T17:11:57.416Z,8.73
2022-10-17T17:14:27.077Z,8.98
2022-10-17T17:16:54.948Z,9.40
2022-10-17T17:19:22.709Z,10.18
2022-10-17T17:21:51.175Z,9.55
2022-10-17T17:24:21.109Z,10.82
2022-10-17T17:26:52.216Z,9.03
2022-10-17T17:29:20.029Z,10.50
2022-10-17T17:31:49.746Z,10.40
2022-10-17T17:34:18.513Z,10.88
2022-10-17T17:36:46.623Z,9.57
2022-10-17T17:39:15.783Z,10.27
2022-10-17T17:41:44.359Z,11.00
2022-10-17T17:44:16.458Z,11.43
2022-10-17T17:46:45.366Z,10.27
2022-10-17T17:49:15.163Z,11.43
2022-10-17T17:51:46.333Z,11.20
2022-10-17T17:54:14.393Z,12.75
2022-10-17T17:56:42.142Z,13.35
2022-10-17T17:59:13.506Z,12.27
2022-10-17T18:01:41.599Z,11.65
2022-10-17T18:04:10.097Z,11.32
2022-10-17T18:06:40.106Z,10.80
2022-10-17T18:09:10.092Z,13.10
2022-10-17T18:11:38.608Z,12.65
2022-10-17T18:14:08.568Z,12.10
2022-10-17T18:16:37.821Z,11.73
2022-10-17T18:19:07.371Z,12.20
2022-10-17T18:21:35.914Z,11.33
2022-10-17T18:24:05.820Z,11.95
2022-10-17T18:26:34.215Z,12.52
2022-10-17T18:29:02.105Z,14.05
2022-10-17T18:31:35.317Z,13.32
2022-10-17T18:34:04.602Z,13.37
2022-10-17T18:36:33.909Z,12.13
2022-10-17T18:39:02.905Z,11.73
2022-10-17T18:41:33.227Z,12.98
2022-10-17T18:44:01.153Z,12.60
2022-10-17T18:46:31.702Z,13.77
2022-10-17T18:48:59.712Z,12.02
2022-10-17T18:51:27.993Z,10.30
2022-10-17T18:53:58.629Z,14.18
2022-10-17T18:56:27.520Z,11.82
2022-10-17T18:58:57.634Z,13.75
2022-10-17T19:01:28.489Z,12.40
2022-10-17T19:03:58.008Z,13.68
2022-10-17T19:06:31.882Z,12.57
2022-10-17T19:09:03.109Z,11.90
2022-10-17T19:11:32.605Z,12.77
2022-10-17T19:14:04.564Z,13.90
2022-10-17T19:16:34.577Z,13.02
2022-10-17T19:19:04.959Z,12.43
2022-10-17T19:21:33.091Z,12.45
2022-10-17T19:24:02.753Z,13.20
2022-10-17T19:26:32.382Z,11.85
2022-10-17T19:29:02.317Z,10.23
2022-10-17T19:31:32.085Z,10.30
2022-10-17T19:34:00.847Z,11.10
2022-10-17T19:36:33.527Z,10.53
2022-10-17T19:39:02.575Z,8.63
2022-10-17T19:41:30.626Z,7.77
2022-10-17T19:43:58.493Z,7.97
2022-10-17T19:46:30.452Z,7.72
2022-10-17T19:48:58.458Z,6.07
2022-10-17T19:51:27.237Z,6.33
2022-10-17T19:53:56.692Z,5.60
2022-10-17T19:56:25.914Z,4.93
2022-10-17T19:58:55.626Z,4.67
2022-10-17T20:01:25.670Z,5.23
2022-10-17T20:03:55.471Z,4.50
2022-10-17T20:06:23.543Z,4.77
2022-10-17T20:08:51.931Z,4.03
2022-10-17T20:11:22.291Z,4.60
2022-10-17T20:13:50.513Z,4.07
2022-10-17T20:16:22.289Z,3.40
2022-10-17T20:18:50.877Z,3.20
2022-10-17T20:21:23.430Z,7.43
2022-10-17T20:23:51.889Z,3.67
2022-10-17T20:26:37.449Z,3.53
2022-10-17T20:29:11.100Z,3.33
2022-10-17T20:31:39.734Z,3.13
2022-10-17T20:34:07.565Z,3.17
2022-10-17T20:36:37.506Z,2.90
2022-10-17T20:39:06.296Z,2.67
2022-10-17T20:41:34.651Z,2.67
2022-10-17T20:44:02.583Z,2.73
2022-10-17T20:46:44.411Z,4.67
2022-10-17T20:49:19.166Z,2.60
2022-10-17T20:51:48.464Z,2.67
2022-10-17T20:54:16.273Z,2.67
2022-10-17T20:56:44.136Z,3.23
2022-10-17T20:59:16.316Z,3.47
2022-10-17T21:01:45.367Z,3.37
2022-10-17T21:07:03.328Z,3.37
2022-10-17T21:09:31.360Z,3.00
2022-10-17T21:11:59.218Z,3.50
2022-10-17T21:14:27.076Z,4.50
2022-10-17T21:16:54.831Z,6.13
2022-10-17T21:19:22.932Z,3.03
2022-10-17T21:21:51.526Z,3.33
2022-10-17T21:24:20.912Z,2.90
2022-10-17T21:26:55.691Z,4.80
2022-10-17T21:29:24.381Z,5.07
2022-10-17T21:31:52.539Z,3.80
2022-10-17T21:34:23.980Z,3.13
2022-10-17T21:36:52.421Z,5.13
2022-10-17T21:39:24.276Z,4.10
2022-10-17T21:41:52.761Z,3.63
2022-10-17T21:44:23.160Z,3.30
2022-10-17T21:46:51.829Z,2.93
2022-10-17T21:49:26.629Z,5.10
2022-10-17T21:51:54.934Z,4.20
2022-10-17T21:54:24.545Z,6.37
2022-10-17T21:56:53.252Z,5.03
2022-10-17T21:59:21.476Z,4.97
2022-10-17T22:01:49.367Z,4.77
2022-10-17T22:04:18.704Z,7.83
2022-10-17T22:06:51.182Z,6.63
2022-10-17T22:09:21.147Z,7.37
2022-10-17T22:11:52.985Z,7.57
2022-10-17T22:14:22.428Z,6.43
2022-10-17T22:16:50.864Z,7.00
2022-10-17T22:19:21.011Z,7.50
2022-10-17T22:21:49.426Z,9.00
2022-10-17T22:26:53.916Z,6.50
2022-10-17T22:29:22.015Z,9.30
2022-10-17T22:31:49.911Z,7.57
2022-10-17T22:34:18.759Z,8.57
2022-10-17T22:36:47.765Z,7.80
2022-10-17T22:39:15.726Z,7.37
2022-10-17T22:41:43.655Z,7.67
2022-10-17T22:44:12.955Z,7.93
2022-10-17T22:46:40.802Z,8.43
2022-10-17T22:49:08.783Z,6.70
2022-10-17T22:51:36.533Z,7.67
2022-10-17T22:54:04.358Z,7.73
2022-10-17T22:56:32.284Z,9.70
2022-10-17T22:59:00.022Z,6.77
2022-10-17T23:01:29.199Z,7.60
2022-10-17T23:03:57.055Z,7.87
2022-10-17T23:06:25.159Z,7.20
2022-10-17T23:08:53.693Z,7.70
2022-10-17T23:11:21.980Z,7.93
2022-10-17T23:13:49.793Z,7.37
2022-10-17T23:16:17.915Z,8.67
2022-10-17T23:18:47.410Z,9.23
2022-10-17T23:21:15.433Z,8.40
2022-10-17T23:23:43.259Z,8.83
2022-10-17T23:26:13.435Z,9.00
2022-10-17T23:28:42.197Z,8.70
2022-10-17T23:31:12.163Z,8.27
2022-10-17T23:33:41.464Z,9.27
2022-10-17T23:36:12.129Z,7.13
2022-10-17T23:38:40.805Z,11.17
2022-10-17T23:41:09.031Z,8.83
2022-10-17T23:43:36.872Z,9.13
2022-10-17T23:46:06.314Z,12.73
2022-10-17T23:48:38.441Z,9.80
2022-10-17T23:51:07.019Z,10.00
2022-10-17T23:53:36.917Z,7.60
2022-10-17T23:56:05.329Z,9.17
2022-10-17T23:58:33.164Z,8.60
